createdAt,value
2023-04-11T00:00:02.807Z,72.40
2023-04-11T00:02:40.281Z,72.20
2023-04-11T00:05:19.641Z,72.20
2023-04-11T00:07:54.396Z,72.00
2023-04-11T00:10:23.018Z,72.10
2023-04-11T00:12:50.790Z,72.20
2023-04-11T00:15:22.307Z,72.30
2023-04-11T00:17:59.713Z,72.30
2023-04-11T00:20:27.570Z,72.30
2023-04-11T00:22:58.914Z,72.30
2023-04-11T00:25:27.179Z,72.30
2023-04-11T00:27:54.845Z,72.30
2023-04-11T00:30:23.020Z,72.30
2023-04-11T00:32:51.025Z,72.20
2023-04-11T00:35:18.358Z,71.90
2023-04-11T00:37:46.538Z,71.80
2023-04-11T00:40:17.441Z,72.00
2023-04-11T00:42:44.767Z,72.20
2023-04-11T00:45:12.581Z,72.10
2023-04-11T00:47:40.004Z,72.20
2023-04-11T00:50:08.238Z,72.20
2023-04-11T00:52:36.347Z,72.20
2023-04-11T00:55:04.063Z,72.20
2023-04-11T00:57:33.969Z,72.30
2023-04-11T01:00:01.562Z,72.30
2023-04-11T01:02:29.725Z,72.20
2023-04-11T01:04:57.823Z,72.10
2023-04-11T01:07:25.990Z,72.10
2023-04-11T01:09:53.764Z,72.10
2023-04-11T01:12:21.967Z,72.00
2023-04-11T01:14:49.924Z,72.10
2023-04-11T01:17:17.155Z,72.10
2023-04-11T01:19:44.441Z,72.00
2023-04-11T01:22:12.972Z,72.00
2023-04-11T01:24:41.545Z,72.00
2023-04-11T01:27:08.826Z,72.10
2023-04-11T01:29:36.917Z,72.10
2023-04-11T01:32:04.382Z,72.10
2023-04-11T01:34:31.846Z,72.00
2023-04-11T01:37:03.963Z,72.00
2023-04-11T01:39:31.341Z,71.90
2023-04-11T01:42:01.174Z,72.00
2023-04-11T01:44:28.868Z,72.20
2023-04-11T01:47:00.883Z,72.30
2023-04-11T01:49:28.579Z,72.30
2023-04-11T01:51:55.814Z,72.30
2023-04-11T01:54:23.039Z,72.30
2023-04-11T01:56:57.672Z,72.00
2023-04-11T01:59:24.920Z,72.00
2023-04-11T02:01:52.230Z,72.00
2023-04-11T02:04:20.075Z,72.00
2023-04-11T02:06:47.385Z,72.10
2023-04-11T02:09:23.707Z,72.30
2023-04-11T02:11:52.739Z,72.50
2023-04-11T02:14:20.565Z,72.40
2023-04-11T02:16:55.959Z,72.20
2023-04-11T02:19:25.982Z,72.30
2023-04-11T02:21:53.294Z,72.30
2023-04-11T02:24:20.433Z,72.30
2023-04-11T02:26:48.008Z,72.20
2023-04-11T02:29:15.556Z,72.00
2023-04-11T02:31:42.807Z,71.90
2023-04-11T02:34:10.223Z,71.70
2023-04-11T02:36:37.496Z,71.70
2023-04-11T02:39:04.916Z,71.60
2023-04-11T02:41:32.177Z,71.50
2023-04-11T02:44:00.762Z,71.60
2023-04-11T02:46:28.920Z,71.70
2023-04-11T02:48:56.753Z,71.90
2023-04-11T02:51:25.243Z,71.90
2023-04-11T02:53:52.681Z,71.80
2023-04-11T02:56:21.952Z,71.70
2023-04-11T02:58:54.989Z,71.60
2023-04-11T03:01:25.222Z,71.50
2023-04-11T03:03:54.647Z,71.50
2023-04-11T03:06:24.855Z,71.50
2023-04-11T03:08:57.052Z,71.50
2023-04-11T03:11:24.734Z,71.50
2023-04-11T03:13:51.989Z,71.50
2023-04-11T03:16:19.990Z,71.70
2023-04-11T03:18:47.280Z,71.70
2023-04-11T03:21:14.551Z,71.60
2023-04-11T03:23:44.817Z,71.40
2023-04-11T03:26:15.574Z,71.20
2023-04-11T03:28:44.193Z,71.50
2023-04-11T03:31:13.392Z,71.50
2023-04-11T03:33:40.912Z,71.60
2023-04-11T03:36:08.885Z,71.60
2023-04-11T03:38:36.250Z,71.50
2023-04-11T03:41:03.928Z,71.60
2023-04-11T03:43:31.209Z,71.40
2023-04-11T03:45:59.815Z,71.20
2023-04-11T03:48:53.900Z,71.00
2023-04-11T03:51:22.749Z,71.00
2023-04-11T03:53:58.119Z,71.10
2023-04-11T03:56:30.986Z,71.20
2023-04-11T03:58:58.816Z,71.20
2023-04-11T04:01:51.322Z,71.20
2023-04-11T04:04:19.061Z,70.90
2023-04-11T04:06:50.890Z,70.90
2023-04-11T04:09:18.341Z,71.00
2023-04-11T04:11:52.915Z,70.90
2023-04-11T04:14:27.157Z,70.90
2023-04-11T04:16:55.998Z,70.90
2023-04-11T04:19:23.821Z,71.10
2023-04-11T04:21:52.268Z,71.00
2023-04-11T04:24:20.470Z,71.00
2023-04-11T04:27:00.998Z,70.90
2023-04-11T04:29:51.377Z,71.00
2023-04-11T04:32:31.048Z,71.20
2023-04-11T04:35:07.182Z,71.10
2023-04-11T04:37:39.637Z,70.90
2023-04-11T04:40:15.919Z,70.80
2023-04-11T04:43:01.234Z,70.80
2023-04-11T04:45:37.870Z,70.50
2023-04-11T04:48:06.030Z,70.30
2023-04-11T04:50:33.835Z,70.00
2023-04-11T04:53:01.120Z,69.80
2023-04-11T04:55:28.954Z,69.40
2023-04-11T04:57:56.291Z,69.20
2023-04-11T05:00:23.944Z,68.80
2023-04-11T05:02:55.162Z,69.10
2023-04-11T05:05:25.939Z,68.80
2023-04-11T05:07:54.036Z,69.00
2023-04-11T05:10:22.924Z,68.90
2023-04-11T05:12:50.672Z,68.60
2023-04-11T05:15:18.671Z,68.30
2023-04-11T05:17:47.222Z,68.20
2023-04-11T05:20:16.080Z,67.30
2023-04-11T05:22:48.901Z,67.00
2023-04-11T05:25:16.574Z,67.00
2023-04-11T05:27:44.999Z,66.60
2023-04-11T05:30:13.477Z,66.20
2023-04-11T05:32:42.971Z,65.90
2023-04-11T05:35:10.779Z,65.50
2023-04-11T05:37:48.202Z,65.10
2023-04-11T05:40:16.198Z,64.50
2023-04-11T05:42:43.451Z,64.10
2023-04-11T05:45:11.028Z,63.50
2023-04-11T05:47:38.237Z,62.60
2023-04-11T05:50:07.226Z,62.10
2023-04-11T05:52:34.502Z,62.00
2023-04-11T05:55:02.170Z,61.80
2023-04-11T05:57:29.851Z,61.50
2023-04-11T05:59:57.218Z,60.90
2023-04-11T06:02:28.070Z,60.50
2023-04-11T06:04:55.472Z,60.10
2023-04-11T06:07:27.628Z,60.50
2023-04-11T06:09:55.087Z,60.50
2023-04-11T06:12:25.132Z,60.70
2023-04-11T06:14:52.389Z,60.60
2023-04-11T06:17:19.656Z,60.30
2023-04-11T06:19:46.990Z,60.20
2023-04-11T06:22:14.314Z,60.10
2023-04-11T06:24:41.553Z,59.50
2023-04-11T06:27:11.841Z,59.00
2023-04-11T06:29:39.907Z,58.80
2023-04-11T06:32:07.573Z,58.60
2023-04-11T06:34:35.060Z,59.20
2023-04-11T06:37:02.824Z,59.10
2023-04-11T06:39:30.828Z,59.20
2023-04-11T06:41:58.078Z,58.70
2023-04-11T06:44:27.847Z,57.80
2023-04-11T06:46:56.712Z,57.30
2023-04-11T06:49:26.952Z,57.00
2023-04-11T06:51:55.047Z,56.40
2023-04-11T06:54:22.383Z,56.10
2023-04-11T06:56:53.258Z,56.10
2023-04-11T06:59:56.632Z,55.60
2023-04-11T07:02:25.146Z,56.10
2023-04-11T07:04:53.476Z,56.30
2023-04-11T07:07:21.381Z,56.40
2023-04-11T07:09:48.785Z,56.30
2023-04-11T07:12:16.156Z,56.00
2023-04-11T07:14:43.525Z,55.70
2023-04-11T07:17:10.761Z,55.20
2023-04-11T07:19:38.527Z,55.40
2023-04-11T07:22:07.808Z,55.20
2023-04-11T07:24:35.769Z,55.10
2023-04-11T07:27:03.076Z,54.90
2023-04-11T07:29:31.760Z,55.00
2023-04-11T07:31:59.194Z,55.10
2023-04-11T07:34:26.957Z,55.30
2023-04-11T07:36:58.728Z,55.50
2023-04-11T07:39:27.452Z,55.50
2023-04-11T07:41:55.557Z,55.40
2023-04-11T07:44:24.004Z,55.40
2023-04-11T07:46:54.157Z,55.30
2023-04-11T07:49:22.840Z,55.20
2023-04-11T07:51:52.921Z,55.40
2023-04-11T07:54:21.007Z,55.50
2023-04-11T07:56:48.998Z,55.40
2023-04-11T07:59:16.881Z,55.40
2023-04-11T08:01:47.537Z,55.40
2023-04-11T08:04:16.702Z,55.70
2023-04-11T08:06:44.833Z,54.90
2023-04-11T08:09:12.327Z,54.50
2023-04-11T08:11:39.597Z,54.10
2023-04-11T08:14:06.847Z,53.70
2023-04-11T08:16:35.872Z,53.90
2023-04-11T08:19:03.890Z,54.20
2023-04-11T08:21:31.320Z,53.90
2023-04-11T08:23:58.791Z,53.10
2023-04-11T08:26:27.097Z,53.20
2023-04-11T08:28:54.314Z,53.50
2023-04-11T08:31:21.837Z,52.90
2023-04-11T08:33:49.104Z,53.20
2023-04-11T08:36:16.600Z,53.30
2023-04-11T08:38:43.956Z,53.20
2023-04-11T08:41:11.731Z,53.60
2023-04-11T08:43:40.201Z,53.20
2023-04-11T08:46:08.510Z,53.50
2023-04-11T08:48:43.701Z,52.40
2023-04-11T08:51:12.558Z,52.00
2023-04-11T08:53:40.365Z,52.30
2023-04-11T08:56:17.112Z,52.60
2023-04-11T08:58:44.441Z,52.50
2023-04-11T09:01:33.174Z,51.80
2023-04-11T09:04:01.874Z,51.80
2023-04-11T09:06:30.796Z,52.10
2023-04-11T09:08:59.667Z,52.20
2023-04-11T09:11:28.002Z,52.20
2023-04-11T09:14:13.209Z,51.80
2023-04-11T09:16:41.796Z,51.20
2023-04-11T09:19:24.316Z,51.30
2023-04-11T09:21:51.667Z,51.20
2023-04-11T09:24:18.898Z,51.40
2023-04-11T09:26:46.140Z,51.40
2023-04-11T09:29:38.148Z,50.80
2023-04-11T09:32:06.375Z,50.00
2023-04-11T09:34:42.396Z,50.30
2023-04-11T09:37:09.936Z,50.50
2023-04-11T09:39:37.395Z,50.10
2023-04-11T09:42:25.918Z,49.90
2023-04-11T09:44:53.260Z,49.40
2023-04-11T09:47:20.467Z,48.80
2023-04-11T09:49:48.558Z,47.90
2023-04-11T09:52:16.074Z,47.70
2023-04-11T09:54:43.362Z,48.10
2023-04-11T09:57:10.613Z,47.90
2023-04-11T09:59:38.926Z,47.60
2023-04-11T10:02:06.166Z,48.00
2023-04-11T10:04:34.618Z,48.10
2023-04-11T10:07:18.188Z,47.80
2023-04-11T10:09:45.784Z,47.60
2023-04-11T10:12:13.073Z,47.70
2023-04-11T10:14:41.806Z,47.10
2023-04-11T10:17:23.268Z,46.50
2023-04-11T10:19:57.676Z,45.90
2023-04-11T10:23:01.164Z,45.70
2023-04-11T10:25:28.850Z,46.70
2023-04-11T10:28:06.452Z,45.60
2023-04-11T10:30:40.286Z,45.30
2023-04-11T10:33:19.552Z,45.00
2023-04-11T10:36:06.636Z,44.40
2023-04-11T10:38:46.189Z,44.40
2023-04-11T10:41:22.646Z,44.30
2023-04-11T10:43:50.886Z,42.40
2023-04-11T10:46:23.869Z,42.50
2023-04-11T10:49:04.369Z,42.60
2023-04-11T10:51:33.121Z,41.90
2023-04-11T10:54:02.124Z,42.10
2023-04-11T10:56:54.791Z,41.90
2023-04-11T10:59:34.492Z,41.10
2023-04-11T11:02:03.081Z,40.20
2023-04-11T11:04:35.104Z,39.50
2023-04-11T11:07:04.371Z,39.30
2023-04-11T11:09:34.958Z,39.20
2023-04-11T11:12:07.230Z,37.90
2023-04-11T11:14:35.263Z,36.80
2023-04-11T11:17:03.262Z,36.70
2023-04-11T11:19:31.458Z,36.80
2023-04-11T11:22:04.172Z,37.00
2023-04-11T11:24:32.064Z,36.60
2023-04-11T11:26:59.876Z,36.80
2023-04-11T11:29:34.014Z,37.10
2023-04-11T11:32:05.481Z,36.50
2023-04-11T11:34:39.040Z,37.00
2023-04-11T11:37:06.658Z,36.60
2023-04-11T11:39:35.601Z,37.30
2023-04-11T11:42:03.920Z,37.40
2023-04-11T11:48:01.662Z,36.70
2023-04-11T11:50:33.140Z,37.20
2023-04-11T11:53:13.658Z,37.00
2023-04-11T11:55:41.614Z,37.00
2023-04-11T11:58:08.742Z,36.50
2023-04-11T12:00:39.379Z,36.50
2023-04-11T12:03:09.777Z,36.50
2023-04-11T12:05:37.843Z,37.20
2023-04-11T12:08:06.441Z,37.30
2023-04-11T12:10:42.525Z,37.30
2023-04-11T12:13:23.370Z,36.70
2023-04-11T12:15:52.094Z,37.10
2023-04-11T12:18:22.964Z,36.70
2023-04-11T12:20:50.882Z,36.40
2023-04-11T12:23:18.471Z,36.80
2023-04-11T12:25:48.773Z,37.20
2023-04-11T12:28:16.167Z,37.30
2023-04-11T12:30:46.173Z,37.40
2023-04-11T12:33:16.566Z,37.80
2023-04-11T12:35:44.354Z,37.70
2023-04-11T12:38:14.879Z,37.80
2023-04-11T12:40:46.645Z,38.00
2023-04-11T12:43:13.797Z,38.10
2023-04-11T12:45:40.958Z,38.50
2023-04-11T12:48:08.337Z,38.40
2023-04-11T12:50:35.458Z,38.60
2023-04-11T12:53:03.338Z,39.00
2023-04-11T12:55:31.178Z,39.00
2023-04-11T12:57:58.644Z,39.30
2023-04-11T13:00:26.805Z,39.70
2023-04-11T13:02:55.069Z,40.00
2023-04-11T13:05:22.610Z,40.20
2023-04-11T13:07:49.787Z,40.50
2023-04-11T13:10:17.031Z,41.10
2023-04-11T13:12:45.140Z,41.00
2023-04-11T13:15:13.718Z,41.40
2023-04-11T13:17:40.830Z,41.60
2023-04-11T13:20:11.130Z,41.50
2023-04-11T13:22:39.085Z,41.80
2023-04-11T13:25:07.626Z,42.10
2023-04-11T13:27:34.966Z,42.60
2023-04-11T13:30:12.088Z,43.00
2023-04-11T13:32:40.745Z,43.30
2023-04-11T13:35:08.472Z,43.70
2023-04-11T13:37:35.803Z,44.00
2023-04-11T13:40:06.453Z,44.70
2023-04-11T13:42:33.807Z,45.30
2023-04-11T13:45:04.677Z,45.90
2023-04-11T13:47:32.115Z,46.40
2023-04-11T13:50:01.940Z,46.90
2023-04-11T13:52:29.089Z,47.30
2023-04-11T13:54:56.354Z,48.00
2023-04-11T13:57:25.754Z,48.50
2023-04-11T13:59:55.027Z,49.10
2023-04-11T14:02:25.199Z,49.70
2023-04-11T14:04:54.767Z,50.20
2023-04-11T14:07:22.436Z,50.80
2023-04-11T14:09:49.451Z,51.30
2023-04-11T14:12:16.794Z,51.80
2023-04-11T14:14:43.896Z,52.40
2023-04-11T14:17:11.396Z,53.30
2023-04-11T14:19:39.457Z,54.10
2023-04-11T14:22:06.717Z,54.80
2023-04-11T14:24:35.609Z,55.30
2023-04-11T14:27:03.208Z,56.10
2023-04-11T14:29:31.233Z,56.80
2023-04-11T14:31:58.618Z,57.30
2023-04-11T14:34:25.826Z,57.90
2023-04-11T14:36:55.854Z,58.40
2023-04-11T14:39:23.803Z,58.60
2023-04-11T14:41:51.396Z,59.00
2023-04-11T14:44:18.620Z,59.40
2023-04-11T14:46:45.988Z,59.70
2023-04-11T14:49:16.096Z,59.90
2023-04-11T14:51:43.238Z,60.40
2023-04-11T14:54:13.341Z,60.50
2023-04-11T14:56:40.498Z,60.60
2023-04-11T14:59:10.216Z,61.00
2023-04-11T15:01:38.732Z,61.30
2023-04-11T15:04:06.570Z,61.70
2023-04-11T15:06:35.216Z,62.00
2023-04-11T15:09:02.505Z,62.50
2023-04-11T15:11:29.576Z,62.80
2023-04-11T15:13:57.071Z,63.30
2023-04-11T15:16:25.770Z,63.60
2023-04-11T15:18:53.389Z,64.00
2023-04-11T15:21:20.567Z,64.50
2023-04-11T15:23:47.731Z,64.80
2023-04-11T15:26:14.782Z,65.30
2023-04-11T15:28:45.794Z,65.60
2023-04-11T15:31:14.774Z,65.80
2023-04-11T15:33:45.133Z,66.00
2023-04-11T15:36:13.265Z,66.30
2023-04-11T15:38:40.337Z,66.60
2023-04-11T15:41:10.505Z,66.80
2023-04-11T15:43:38.702Z,66.50
2023-04-11T15:46:06.786Z,66.60
2023-04-11T15:48:33.842Z,66.80
2023-04-11T15:51:00.936Z,66.80
2023-04-11T15:53:28.993Z,66.90
2023-04-11T15:55:56.942Z,66.60
2023-04-11T15:58:24.018Z,66.70
2023-04-11T16:00:54.939Z,66.80
2023-04-11T16:03:31.390Z,66.70
2023-04-11T16:06:01.524Z,66.50
2023-04-11T16:08:32.606Z,66.50
2023-04-11T16:11:04.071Z,66.70
2023-04-11T16:13:31.817Z,66.80
2023-04-11T16:16:00.609Z,66.50
2023-04-11T16:18:27.884Z,66.70
2023-04-11T16:20:57.710Z,66.90
2023-04-11T16:23:24.868Z,66.90
2023-04-11T16:25:54.678Z,66.60
2023-04-11T16:28:21.857Z,66.40
2023-04-11T16:30:52.473Z,66.50
2023-04-11T16:33:19.531Z,66.30
2023-04-11T16:35:46.886Z,66.30
2023-04-11T16:38:17.026Z,66.20
2023-04-11T16:40:46.763Z,66.40
2023-04-11T16:43:17.050Z,66.40
2023-04-11T16:45:47.349Z,66.30
2023-04-11T16:48:15.134Z,66.30
2023-04-11T16:50:50.679Z,66.40
2023-04-11T16:53:23.436Z,66.30
2023-04-11T16:56:15.332Z,66.30
2023-04-11T16:58:45.463Z,66.10
2023-04-11T17:01:15.157Z,66.40
2023-04-11T17:03:44.972Z,66.60
2023-04-11T17:06:18.310Z,66.70
2023-04-11T17:08:45.530Z,66.70
2023-04-11T17:11:15.610Z,66.30
2023-04-11T17:13:46.315Z,66.20
2023-04-11T17:16:16.280Z,66.40
2023-04-11T17:18:43.447Z,66.50
2023-04-11T17:21:10.635Z,66.50
2023-04-11T17:23:56.746Z,66.30
2023-04-11T17:26:27.223Z,66.40
2023-04-11T17:29:03.127Z,66.30
2023-04-11T17:31:50.184Z,66.20
2023-04-11T17:34:20.963Z,66.10
2023-04-11T17:36:48.165Z,65.90
2023-04-11T17:39:19.624Z,65.80
2023-04-11T17:41:49.543Z,65.80
2023-04-11T17:44:25.822Z,65.90
2023-04-11T17:46:53.778Z,66.20
2023-04-11T17:49:21.677Z,66.20
2023-04-11T17:51:58.181Z,66.20
2023-04-11T17:54:30.757Z,66.40
2023-04-11T17:57:03.229Z,66.30
2023-04-11T17:59:31.630Z,66.20
2023-04-11T18:02:14.478Z,66.30
2023-04-11T18:04:42.533Z,66.40
2023-04-11T18:07:18.131Z,66.40
2023-04-11T18:09:47.682Z,66.40
2023-04-11T18:12:15.794Z,66.20
2023-04-11T18:14:47.342Z,66.50
2023-04-11T18:17:16.794Z,66.70
2023-04-11T18:19:46.613Z,66.60
2023-04-11T18:22:21.435Z,66.70
2023-04-11T18:24:51.142Z,66.60
2023-04-11T18:27:18.223Z,66.70
2023-04-11T18:29:47.051Z,66.70
2023-04-11T18:32:19.999Z,66.90
2023-04-11T18:34:52.272Z,66.80
2023-04-11T18:37:22.235Z,66.90
2023-04-11T18:39:53.048Z,66.90
2023-04-11T18:42:21.209Z,67.00
2023-04-11T18:44:48.256Z,67.00
2023-04-11T18:47:22.065Z,67.00
2023-04-11T18:49:56.172Z,67.00
2023-04-11T18:52:23.714Z,66.90
2023-04-11T18:54:51.422Z,66.80
2023-04-11T18:57:18.537Z,66.80
2023-04-11T18:59:48.623Z,66.90
2023-04-11T19:02:18.729Z,66.80
2023-04-11T19:05:00.974Z,66.90
2023-04-11T19:07:37.710Z,66.80
2023-04-11T19:10:10.179Z,67.10
2023-04-11T19:12:43.384Z,66.80
2023-04-11T19:15:13.687Z,66.80
2023-04-11T19:17:41.294Z,66.70
2023-04-11T19:20:30.149Z,66.70
2023-04-11T19:22:57.447Z,66.80
2023-04-11T19:25:26.209Z,66.70
2023-04-11T19:27:54.444Z,66.80
2023-04-11T19:30:28.586Z,66.70
2023-04-11T19:32:57.223Z,66.70
2023-04-11T19:35:25.497Z,66.50
2023-04-11T19:38:00.527Z,66.70
2023-04-11T19:40:29.715Z,66.60
2023-04-11T19:42:58.672Z,66.60
2023-04-11T19:45:25.929Z,66.60
2023-04-11T19:47:55.070Z,66.80
2023-04-11T19:50:23.023Z,66.60
2023-04-11T19:52:50.867Z,66.50
2023-04-11T19:55:27.409Z,66.50
2023-04-11T19:57:55.061Z,66.40
2023-04-11T20:00:22.321Z,66.30
2023-04-11T20:02:50.195Z,66.20
2023-04-11T20:05:18.655Z,66.20
2023-04-11T20:07:46.204Z,66.20
2023-04-11T20:10:13.584Z,65.90
2023-04-11T20:12:40.822Z,65.70
2023-04-11T20:15:09.266Z,65.60
2023-04-11T20:17:36.366Z,65.50
2023-04-11T20:20:09.055Z,65.40
2023-04-11T20:22:38.773Z,65.50
2023-04-11T20:25:07.437Z,65.30
2023-04-11T20:27:34.534Z,65.00
2023-04-11T20:30:06.896Z,65.10
2023-04-11T20:32:34.540Z,65.10
2023-04-11T20:35:01.790Z,65.00
2023-04-11T20:37:30.945Z,64.80
2023-04-11T20:39:58.699Z,64.80
2023-04-11T20:42:28.231Z,64.80
2023-04-11T20:45:03.009Z,64.70
2023-04-11T20:47:37.280Z,64.70
2023-04-11T20:50:05.952Z,64.90
2023-04-11T20:52:36.869Z,64.50
2023-04-11T20:55:05.118Z,64.60
2023-04-11T20:57:33.671Z,64.30
2023-04-11T21:00:01.143Z,64.30
2023-04-11T21:02:28.312Z,64.20
2023-04-11T21:04:55.914Z,64.20
2023-04-11T21:07:22.995Z,64.40
2023-04-11T21:09:50.185Z,64.20
2023-04-11T21:12:17.186Z,64.40
2023-04-11T21:14:44.221Z,64.20
2023-04-11T21:17:11.466Z,64.10
2023-04-11T21:19:52.301Z,64.00
2023-04-11T21:22:20.338Z,63.70
2023-04-11T21:24:49.482Z,63.50
2023-04-11T21:27:19.465Z,63.60
2023-04-11T21:29:47.324Z,63.20
2023-04-11T21:32:14.982Z,63.40
2023-04-11T21:34:42.138Z,63.20
2023-04-11T21:37:09.218Z,63.20
2023-04-11T21:39:38.476Z,63.00
2023-04-11T21:42:06.112Z,63.00
2023-04-11T21:44:34.106Z,63.10
2023-04-11T21:47:01.947Z,63.00
2023-04-11T21:49:31.616Z,63.10
2023-04-11T21:52:02.449Z,63.20
2023-04-11T21:54:30.880Z,63.20
2023-04-11T21:56:57.952Z,63.20
2023-04-11T21:59:26.040Z,63.00
2023-04-11T22:01:53.468Z,62.70
2023-04-11T22:04:21.486Z,62.70
2023-04-11T22:06:49.701Z,62.90
2023-04-11T22:09:22.396Z,62.60
2023-04-11T22:11:50.498Z,62.60
2023-04-11T22:14:18.213Z,62.70
2023-04-11T22:16:49.420Z,62.80
2023-04-11T22:19:17.975Z,62.60
2023-04-11T22:21:48.684Z,62.50
2023-04-11T22:24:15.744Z,62.40
2023-04-11T22:26:48.596Z,62.30
2023-04-11T22:29:19.011Z,62.10
2023-04-11T22:31:47.644Z,62.20
2023-04-11T22:34:14.849Z,62.10
2023-04-11T22:36:42.052Z,61.90
2023-04-11T22:39:09.518Z,61.70
2023-04-11T22:41:38.726Z,61.60
2023-04-11T22:44:06.637Z,61.70
2023-04-11T22:46:38.593Z,61.70
2023-04-11T22:49:07.160Z,61.60
2023-04-11T22:51:38.038Z,61.70
2023-04-11T22:54:05.774Z,61.70
2023-04-11T22:56:32.874Z,61.60
2023-04-11T22:59:01.804Z,61.40
2023-04-11T23:01:29.012Z,61.50
2023-04-11T23:03:58.086Z,61.50
2023-04-11T23:06:25.409Z,61.50
2023-04-11T23:08:54.053Z,61.30
2023-04-11T23:11:21.324Z,61.30
2023-04-11T23:13:48.358Z,61.30
2023-04-11T23:16:15.469Z,61.30
2023-04-11T23:18:42.581Z,61.40
2023-04-11T23:21:13.639Z,61.20
2023-04-11T23:23:40.995Z,61.20
2023-04-11T23:26:09.316Z,61.30
2023-04-11T23:28:41.994Z,61.40
2023-04-11T23:31:10.386Z,61.30
2023-04-11T23:33:37.895Z,61.20
2023-04-11T23:36:06.514Z,61.20
2023-04-11T23:38:33.890Z,61.20
2023-04-11T23:41:00.939Z,61.20
2023-04-11T23:43:29.526Z,61.10
2023-04-11T23:45:59.484Z,61.10
2023-04-11T23:48:29.474Z,61.20
2023-04-11T23:50:56.873Z,61.10
2023-04-11T23:53:23.974Z,61.20
2023-04-11T23:55:51.026Z,61.10
2023-04-11T23:58:18.572Z,61.00
